createdAt,value
2019-04-06T00:01:12.456Z,82.96
2019-04-06T00:03:39.954Z,82.88
2019-04-06T00:06:07.474Z,82.86
2019-04-06T00:08:34.998Z,83.14
2019-04-06T00:11:02.533Z,82.98
2019-04-06T00:13:30.048Z,83.26
2019-04-06T00:15:57.590Z,83.38
2019-04-06T00:18:25.074Z,83.29
2019-04-06T00:20:52.578Z,83.28
2019-04-06T00:23:20.097Z,83.41
2019-04-06T00:25:47.622Z,83.36
2019-04-06T00:28:15.135Z,83.34
2019-04-06T00:30:45.260Z,83.51
2019-04-06T00:33:14.344Z,83.46
2019-04-06T00:35:41.856Z,83.77
2019-04-06T00:38:09.432Z,83.76
2019-04-06T00:40:36.953Z,83.92
2019-04-06T00:43:04.448Z,83.71
2019-04-06T00:45:31.959Z,83.64
2019-04-06T00:48:00.242Z,83.61
2019-04-06T00:50:27.858Z,83.73
2019-04-06T00:52:55.363Z,83.63
2019-04-06T00:55:22.887Z,83.55
2019-04-06T00:57:50.371Z,83.62
2019-04-06T01:00:17.894Z,83.74
2019-04-06T01:02:45.576Z,83.99
2019-04-06T01:05:13.616Z,83.73
2019-04-06T01:07:41.134Z,83.77
2019-04-06T01:10:08.633Z,83.86
2019-04-06T01:12:36.171Z,83.79
2019-04-06T01:15:03.656Z,83.74
2019-04-06T01:17:31.188Z,83.60
2019-04-06T01:19:58.705Z,83.72
2019-04-06T01:22:26.203Z,83.66
2019-04-06T01:24:53.721Z,83.53
2019-04-06T01:27:21.238Z,83.10
2019-04-06T01:29:48.902Z,82.98
2019-04-06T01:32:16.414Z,83.00
2019-04-06T01:34:44.165Z,83.25
2019-04-06T01:37:11.646Z,83.27
2019-04-06T01:39:39.133Z,83.36
2019-04-06T01:42:06.662Z,83.32
2019-04-06T01:44:34.291Z,83.14
2019-04-06T01:47:01.884Z,83.16
2019-04-06T01:49:29.456Z,82.95
2019-04-06T01:51:56.944Z,82.98
2019-04-06T01:54:24.469Z,83.51
2019-04-06T01:56:51.964Z,83.06
2019-04-06T01:59:19.502Z,83.13
2019-04-06T02:01:56.932Z,82.85
2019-04-06T02:04:24.436Z,82.56
2019-04-06T02:06:51.963Z,82.43
2019-04-06T02:09:19.496Z,82.37
2019-04-06T02:11:46.977Z,82.10
2019-04-06T02:14:15.321Z,82.15
2019-04-06T02:16:42.798Z,82.17
2019-04-06T02:19:10.273Z,82.15
2019-04-06T02:21:37.790Z,82.35
2019-04-06T02:24:05.276Z,82.51
2019-04-06T02:26:32.781Z,82.37
2019-04-06T02:29:00.252Z,82.46
2019-04-06T02:31:42.627Z,82.71
2019-04-06T02:34:25.008Z,82.62
2019-04-06T02:37:13.288Z,82.94
2019-04-06T02:39:55.647Z,83.01
2019-04-06T02:42:33.049Z,83.07
2019-04-06T02:45:02.208Z,83.14
2019-04-06T02:47:29.772Z,83.16
2019-04-06T02:49:57.252Z,83.23
2019-04-06T02:52:24.771Z,83.15
2019-04-06T02:54:52.262Z,83.42
2019-04-06T02:57:19.864Z,83.51
2019-04-06T02:59:47.304Z,83.40
2019-04-06T03:02:14.894Z,83.34
2019-04-06T03:04:42.289Z,83.48
2019-04-06T03:07:09.904Z,83.56
2019-04-06T03:09:37.325Z,83.51
2019-04-06T03:12:04.849Z,83.47
2019-04-06T03:14:37.194Z,83.47
2019-04-06T03:17:04.683Z,83.48
2019-04-06T03:19:32.218Z,83.76
2019-04-06T03:21:59.922Z,83.70
2019-04-06T03:24:27.316Z,83.47
2019-04-06T03:27:02.018Z,83.53
2019-04-06T03:29:22.406Z,83.42
2019-04-06T03:31:49.910Z,83.32
2019-04-06T03:34:21.209Z,83.38
2019-04-06T03:36:45.133Z,83.26
2019-04-06T03:39:12.618Z,82.99
2019-04-06T03:41:40.097Z,82.94
2019-04-06T03:44:07.587Z,82.76
2019-04-06T03:46:35.114Z,82.62
2019-04-06T03:49:02.630Z,82.81
2019-04-06T03:51:30.107Z,82.91
2019-04-06T03:53:58.445Z,82.66
2019-04-06T03:56:25.923Z,82.61
2019-04-06T03:58:53.404Z,83.78
2019-04-06T04:01:20.903Z,83.09
2019-04-06T04:03:48.362Z,82.74
2019-04-06T04:06:15.900Z,82.51
2019-04-06T04:08:43.354Z,82.25
2019-04-06T04:11:10.820Z,82.00
2019-04-06T04:13:38.256Z,81.96
2019-04-06T04:16:05.723Z,81.73
2019-04-06T04:18:33.181Z,81.66
2019-04-06T04:21:00.653Z,81.83
2019-04-06T04:23:28.103Z,81.67
2019-04-06T04:25:55.582Z,81.97
2019-04-06T04:28:23.040Z,82.19
2019-04-06T04:30:50.707Z,82.19
2019-04-06T04:33:18.687Z,82.35
2019-04-06T04:35:46.155Z,82.42
2019-04-06T04:38:13.595Z,82.37
2019-04-06T04:40:41.189Z,82.33
2019-04-06T04:43:08.583Z,82.34
2019-04-06T04:45:36.044Z,82.31
2019-04-06T04:48:03.498Z,82.23
2019-04-06T04:50:32.342Z,82.44
2019-04-06T04:52:59.878Z,82.54
2019-04-06T04:55:27.311Z,82.55
2019-04-06T04:57:54.874Z,82.81
2019-04-06T05:00:22.306Z,83.15
2019-04-06T05:02:49.789Z,82.81
2019-04-06T05:05:17.286Z,82.46
2019-04-06T05:07:45.683Z,82.34
2019-04-06T05:10:13.172Z,82.51
2019-04-06T05:12:40.657Z,82.98
2019-04-06T05:15:09.073Z,83.69
2019-04-06T05:17:36.567Z,83.04
2019-04-06T05:20:03.995Z,82.67
2019-04-06T05:22:31.530Z,82.47
2019-04-06T05:24:58.982Z,82.27
2019-04-06T05:27:26.420Z,82.27
2019-04-06T05:29:53.866Z,82.08
2019-04-06T05:32:21.341Z,81.85
2019-04-06T05:34:49.871Z,81.76
2019-04-06T05:37:17.363Z,81.78
2019-04-06T05:39:44.854Z,82.01
2019-04-06T05:42:12.289Z,81.94
2019-04-06T05:44:39.736Z,81.87
2019-04-06T05:47:07.233Z,81.87
2019-04-06T05:49:34.681Z,81.86
2019-04-06T05:52:02.148Z,81.84
2019-04-06T05:54:29.579Z,81.88
2019-04-06T05:56:57.263Z,81.98
2019-04-06T05:59:24.557Z,81.66
2019-04-06T06:01:52.019Z,81.68
2019-04-06T06:04:20.403Z,81.48
2019-04-06T06:06:47.966Z,81.27
2019-04-06T06:09:16.526Z,81.37
2019-04-06T06:11:43.862Z,81.66
2019-04-06T06:14:11.397Z,81.79
2019-04-06T06:16:38.858Z,81.80
2019-04-06T06:19:06.332Z,81.89
2019-04-06T06:21:33.815Z,81.87
2019-04-06T06:24:01.303Z,82.22
2019-04-06T06:26:28.972Z,82.33
2019-04-06T06:28:56.272Z,81.95
2019-04-06T06:31:23.793Z,82.06
2019-04-06T06:33:51.292Z,81.68
2019-04-06T06:36:18.803Z,81.75
2019-04-06T06:38:46.288Z,81.74
2019-04-06T06:41:13.717Z,81.87
2019-04-06T06:43:41.222Z,82.23
2019-04-06T06:46:08.842Z,82.15
2019-04-06T06:48:36.202Z,81.95
2019-04-06T06:51:03.743Z,81.98
2019-04-06T06:53:32.405Z,81.90
2019-04-06T06:55:59.789Z,81.50
2019-04-06T06:58:27.182Z,81.50
2019-04-06T07:00:54.671Z,81.48
2019-04-06T07:03:22.122Z,81.53
2019-04-06T07:05:49.782Z,81.67
2019-04-06T07:08:17.247Z,81.60
2019-04-06T07:10:44.630Z,81.53
2019-04-06T07:13:12.117Z,81.77
2019-04-06T07:15:39.579Z,81.94
2019-04-06T07:18:07.074Z,81.95
2019-04-06T07:20:34.574Z,82.03
2019-04-06T07:23:02.013Z,81.96
2019-04-06T07:25:29.476Z,81.95
2019-04-06T07:27:56.958Z,82.00
2019-04-06T07:30:24.420Z,81.79
2019-04-06T07:32:52.051Z,82.00
2019-04-06T07:35:19.506Z,81.78
2019-04-06T07:37:47.032Z,81.58
2019-04-06T07:40:14.505Z,81.58
2019-04-06T07:42:41.960Z,82.12
2019-04-06T07:45:09.435Z,81.79
2019-04-06T07:47:36.973Z,81.55
2019-04-06T07:50:06.212Z,81.60
2019-04-06T07:52:33.734Z,81.81
2019-04-06T07:55:01.308Z,81.51
2019-04-06T07:57:28.738Z,81.37
2019-04-06T07:59:56.187Z,81.36
2019-04-06T08:02:23.661Z,81.33
2019-04-06T08:04:51.183Z,81.28
2019-04-06T08:07:18.728Z,81.13
2019-04-06T08:09:46.565Z,81.10
2019-04-06T08:12:13.768Z,81.28
2019-04-06T08:14:41.268Z,81.48
2019-04-06T08:17:08.737Z,81.66
2019-04-06T08:19:36.426Z,81.77
2019-04-06T08:22:03.806Z,81.73
2019-04-06T08:24:31.276Z,81.66
2019-04-06T08:26:58.775Z,81.48
2019-04-06T08:29:26.255Z,81.68
2019-04-06T08:31:53.749Z,82.05
2019-04-06T08:34:21.497Z,81.30
2019-04-06T08:36:48.916Z,81.18
2019-04-06T08:39:16.233Z,81.59
2019-04-06T08:41:43.695Z,81.30
2019-04-06T08:44:11.224Z,81.46
2019-04-06T08:46:38.687Z,81.34
2019-04-06T08:49:06.206Z,81.21
2019-04-06T08:51:33.716Z,81.26
2019-04-06T08:54:01.194Z,81.18
2019-04-06T08:56:28.853Z,81.23
2019-04-06T08:58:56.178Z,81.25
2019-04-06T09:01:24.710Z,81.72
2019-04-06T09:03:52.208Z,81.50
2019-04-06T09:06:19.701Z,81.43
2019-04-06T09:08:47.169Z,81.10
2019-04-06T09:11:14.696Z,80.83
2019-04-06T09:13:42.153Z,80.79
2019-04-06T09:16:09.730Z,80.79
2019-04-06T09:18:37.207Z,80.85
2019-04-06T09:21:04.597Z,81.00
2019-04-06T09:23:32.648Z,80.92
2019-04-06T09:26:00.149Z,80.51
2019-04-06T09:28:27.629Z,80.46
2019-04-06T09:30:55.113Z,80.44
2019-04-06T09:33:22.623Z,80.77
2019-04-06T09:35:50.146Z,80.55
2019-04-06T09:38:19.742Z,80.58
2019-04-06T09:40:47.261Z,80.64
2019-04-06T09:43:14.543Z,80.70
2019-04-06T09:45:57.221Z,80.16
2019-04-06T09:48:28.477Z,80.22
2019-04-06T09:51:10.850Z,79.83
2019-04-06T09:53:44.072Z,80.24
2019-04-06T09:56:17.218Z,80.21
2019-04-06T09:59:00.405Z,79.97
2019-04-06T10:01:43.688Z,79.62
2019-04-06T10:04:17.671Z,79.80
2019-04-06T10:06:44.942Z,79.40
2019-04-06T10:09:14.350Z,79.55
2019-04-06T10:11:43.702Z,79.44
2019-04-06T10:14:13.054Z,79.44
2019-04-06T10:16:40.541Z,79.22
2019-04-06T10:19:23.148Z,79.15
2019-04-06T10:22:00.830Z,79.30
2019-04-06T10:24:29.595Z,79.43
2019-04-06T10:27:11.782Z,79.26
2019-04-06T10:29:48.819Z,78.99
2019-04-06T10:32:20.138Z,79.64
2019-04-06T10:34:51.079Z,78.82
2019-04-06T10:37:24.058Z,78.99
2019-04-06T10:39:53.097Z,79.35
2019-04-06T10:42:28.540Z,79.31
2019-04-06T10:44:58.435Z,79.18
2019-04-06T10:47:27.779Z,78.76
2019-04-06T10:50:14.049Z,78.64
2019-04-06T10:53:01.331Z,79.03
2019-04-06T10:55:28.856Z,78.12
2019-04-06T10:58:00.219Z,78.07
2019-04-06T11:00:44.123Z,77.38
2019-04-06T11:03:23.306Z,76.99
2019-04-06T11:06:06.440Z,77.09
2019-04-06T11:08:39.404Z,77.00
2019-04-06T11:11:21.652Z,76.73
2019-04-06T11:13:54.870Z,76.20
2019-04-06T11:16:26.968Z,77.04
2019-04-06T11:19:11.228Z,76.92
2019-04-06T11:21:41.485Z,77.01
2019-04-06T11:24:12.915Z,75.95
2019-04-06T11:26:40.372Z,75.55
2019-04-06T11:29:09.527Z,75.65
2019-04-06T11:31:41.272Z,75.68
2019-04-06T11:34:12.554Z,74.93
2019-04-06T11:36:58.290Z,75.28
2019-04-06T11:39:26.592Z,75.26
2019-04-06T11:42:13.853Z,75.17
2019-04-06T11:44:41.572Z,75.03
2019-04-06T11:47:21.600Z,74.38
2019-04-06T11:50:04.521Z,75.18
2019-04-06T11:52:37.623Z,74.67
2019-04-06T11:55:09.642Z,74.36
2019-04-06T11:57:37.522Z,74.53
2019-04-06T12:00:05.977Z,73.62
2019-04-06T12:02:33.939Z,73.69
2019-04-06T12:05:02.798Z,73.05
2019-04-06T12:07:39.011Z,72.52
2019-04-06T12:10:13.110Z,72.44
2019-04-06T12:12:42.018Z,71.86
2019-04-06T12:15:26.267Z,72.02
2019-04-06T12:17:59.403Z,71.82
2019-04-06T12:20:33.481Z,71.37
2019-04-06T12:23:03.849Z,70.95
2019-04-06T12:25:35.997Z,70.57
2019-04-06T12:28:07.527Z,70.11
2019-04-06T12:30:42.474Z,70.35
2019-04-06T12:33:30.351Z,70.49
2019-04-06T12:35:58.864Z,70.51
2019-04-06T12:38:28.055Z,70.37
2019-04-06T12:41:16.313Z,69.50
2019-04-06T12:43:49.325Z,69.06
2019-04-06T12:46:18.719Z,69.68
2019-04-06T12:48:54.797Z,69.41
2019-04-06T12:51:22.958Z,70.15
2019-04-06T12:53:52.505Z,70.04
2019-04-06T12:56:35.495Z,69.03
2019-04-06T12:59:17.736Z,68.55
2019-04-06T13:02:00.385Z,69.41
2019-04-06T13:04:42.718Z,68.85
2019-04-06T13:07:27.947Z,69.29
2019-04-06T13:09:56.450Z,69.11
2019-04-06T13:12:24.514Z,68.18
2019-04-06T13:14:53.245Z,67.73
2019-04-06T13:17:21.341Z,68.10
2019-04-06T13:19:51.527Z,68.68
2019-04-06T13:22:25.158Z,67.65
2019-04-06T13:24:58.442Z,66.99
2019-04-06T13:27:26.819Z,67.84
2019-04-06T13:29:54.434Z,68.48
2019-04-06T13:32:24.269Z,69.22
2019-04-06T13:35:06.803Z,69.06
2019-04-06T13:37:37.378Z,68.90
2019-04-06T13:40:22.567Z,67.83
2019-04-06T13:42:51.473Z,67.33
2019-04-06T13:45:33.831Z,66.83
2019-04-06T13:48:02.391Z,66.80
2019-04-06T13:50:30.115Z,65.40
2019-04-06T13:53:16.290Z,66.12
2019-04-06T13:55:59.709Z,66.43
2019-04-06T13:58:26.888Z,66.52
2019-04-06T14:00:56.860Z,66.25
2019-04-06T14:03:27.269Z,66.42
2019-04-06T14:05:57.019Z,66.25
2019-04-06T14:08:27.092Z,65.95
2019-04-06T14:10:54.538Z,66.47
2019-04-06T14:13:22.856Z,66.43
2019-04-06T14:15:59.132Z,66.11
2019-04-06T14:18:33.510Z,65.88
2019-04-06T14:21:03.383Z,66.13
2019-04-06T14:23:34.352Z,65.43
2019-04-06T14:26:02.212Z,64.26
2019-04-06T14:28:29.662Z,63.94
2019-04-06T14:31:02.918Z,64.34
2019-04-06T14:33:36.471Z,63.77
2019-04-06T14:36:03.960Z,63.47
2019-04-06T14:38:33.373Z,64.16
2019-04-06T14:41:01.646Z,64.21
2019-04-06T14:43:45.800Z,63.55
2019-04-06T14:46:13.249Z,64.26
2019-04-06T14:48:44.587Z,64.22
2019-04-06T14:51:17.697Z,63.13
2019-04-06T14:54:00.044Z,63.46
2019-04-06T14:56:30.284Z,62.87
2019-04-06T14:58:58.178Z,62.96
2019-04-06T15:01:41.514Z,62.81
2019-04-06T15:04:09.490Z,63.14
2019-04-06T15:06:49.759Z,63.18
2019-04-06T15:09:17.982Z,63.25
2019-04-06T15:11:51.480Z,63.53
2019-04-06T15:14:36.367Z,63.73
2019-04-06T15:17:05.660Z,63.16
2019-04-06T15:19:36.695Z,62.96
2019-04-06T15:22:04.385Z,62.59
2019-04-06T15:24:37.417Z,62.38
2019-04-06T15:27:11.402Z,62.24
2019-04-06T15:29:42.137Z,62.29
2019-04-06T15:32:15.522Z,62.42
2019-04-06T15:34:48.211Z,62.29
2019-04-06T15:37:20.909Z,61.98
2019-04-06T15:39:54.677Z,60.97
2019-04-06T15:42:24.535Z,60.51
2019-04-06T15:44:57.473Z,59.59
2019-04-06T15:47:41.963Z,60.77
2019-04-06T15:50:14.871Z,60.50
2019-04-06T15:52:42.331Z,61.08
2019-04-06T15:55:28.352Z,61.58
2019-04-06T15:58:11.763Z,60.75
2019-04-06T16:00:39.906Z,61.33
2019-04-06T16:03:11.878Z,61.22
2019-04-06T16:05:43.934Z,61.21
2019-04-06T16:08:21.315Z,60.86
2019-04-06T16:10:55.438Z,60.89
2019-04-06T16:13:29.159Z,61.25
2019-04-06T16:16:06.164Z,60.39
2019-04-06T16:18:33.672Z,60.96
2019-04-06T16:21:02.824Z,60.79
2019-04-06T16:23:32.613Z,60.76
2019-04-06T16:26:15.167Z,63.00
2019-04-06T16:28:59.162Z,63.67
2019-04-06T16:31:31.443Z,64.13
2019-04-06T16:33:59.273Z,64.78
2019-04-06T16:36:30.290Z,64.85
2019-04-06T16:38:57.706Z,65.15
2019-04-06T16:41:35.743Z,65.54
2019-04-06T16:44:07.244Z,65.57
2019-04-06T16:46:49.348Z,65.80
2019-04-06T16:49:16.819Z,65.51
2019-04-06T16:51:49.922Z,65.78
2019-04-06T16:54:23.309Z,66.11
2019-04-06T16:56:50.814Z,65.85
2019-04-06T16:59:20.231Z,65.92
2019-04-06T17:02:04.347Z,65.83
2019-04-06T17:04:32.706Z,65.96
2019-04-06T17:07:01.936Z,65.90
2019-04-06T17:09:34.406Z,65.96
2019-04-06T17:12:04.998Z,65.96
2019-04-06T17:14:32.563Z,66.04
2019-04-06T17:17:15.586Z,66.11
2019-04-06T17:19:47.453Z,66.12
2019-04-06T17:22:33.726Z,66.10
2019-04-06T17:25:04.552Z,66.25
2019-04-06T17:27:37.439Z,66.44
2019-04-06T17:30:06.395Z,67.40
2019-04-06T17:32:38.140Z,66.69
2019-04-06T17:35:07.578Z,66.53
2019-04-06T17:37:36.869Z,66.58
2019-04-06T17:40:20.126Z,66.79
2019-04-06T17:42:52.699Z,66.92
2019-04-06T17:45:30.217Z,66.94
2019-04-06T17:48:12.168Z,67.33
2019-04-06T17:50:41.176Z,66.99
2019-04-06T17:53:11.487Z,67.04
2019-04-06T17:55:38.951Z,67.18
2019-04-06T17:58:11.643Z,67.64
2019-04-06T18:00:43.014Z,67.85
2019-04-06T18:03:10.468Z,67.80
2019-04-06T18:05:43.759Z,67.57
2019-04-06T18:08:13.418Z,67.98
2019-04-06T18:10:43.667Z,67.67
2019-04-06T18:13:16.947Z,67.88
2019-04-06T18:15:44.121Z,67.58
2019-04-06T18:18:11.726Z,67.63
2019-04-06T18:20:39.103Z,68.07
2019-04-06T18:23:06.589Z,68.08
2019-04-06T18:25:35.162Z,68.28
2019-04-06T18:28:02.825Z,68.31
2019-04-06T18:30:30.498Z,68.86
2019-04-06T18:33:03.297Z,69.04
2019-04-06T18:35:29.472Z,69.74
2019-04-06T18:38:00.396Z,69.21
2019-04-06T18:40:27.350Z,70.00
2019-04-06T18:42:55.136Z,70.68
2019-04-06T18:45:22.348Z,70.74
2019-04-06T18:47:49.815Z,71.28
2019-04-06T18:50:17.270Z,70.65
2019-04-06T18:52:45.168Z,71.06
2019-04-06T18:55:12.961Z,71.84
2019-04-06T18:57:40.315Z,72.53
2019-04-06T19:00:11.608Z,72.45
2019-04-06T19:02:37.091Z,71.56
2019-04-06T19:05:04.604Z,71.54
2019-04-06T19:07:32.054Z,72.48
2019-04-06T19:09:59.525Z,72.39
2019-04-06T19:12:26.971Z,73.45
2019-04-06T19:14:55.786Z,73.55
2019-04-06T19:17:22.807Z,73.58
2019-04-06T19:19:50.267Z,74.11
2019-04-06T19:22:17.701Z,73.35
2019-04-06T19:24:45.161Z,73.46
2019-04-06T19:27:12.595Z,73.45
2019-04-06T19:29:40.485Z,72.71
2019-04-06T19:32:07.589Z,73.59
2019-04-06T19:34:35.134Z,73.93
2019-04-06T19:37:02.558Z,73.26
2019-04-06T19:39:29.998Z,74.10
2019-04-06T19:41:57.463Z,74.60
2019-04-06T19:44:26.015Z,74.58
2019-04-06T19:46:53.211Z,74.61
2019-04-06T19:49:20.673Z,74.92
2019-04-06T19:51:49.133Z,75.32
2019-04-06T19:54:16.629Z,74.46
2019-04-06T19:56:44.099Z,75.12
2019-04-06T19:59:12.923Z,75.72
2019-04-06T20:01:39.058Z,75.92
2019-04-06T20:04:06.860Z,75.58
2019-04-06T20:06:34.561Z,76.45
2019-04-06T20:09:01.500Z,76.92
2019-04-06T20:11:28.940Z,77.16
2019-04-06T20:13:56.423Z,76.76
2019-04-06T20:16:23.865Z,76.39
2019-04-06T20:18:51.360Z,76.70
2019-04-06T20:21:19.592Z,75.66
2019-04-06T20:23:47.082Z,75.30
2019-04-06T20:26:14.606Z,75.48
2019-04-06T20:28:42.048Z,75.26
2019-04-06T20:31:09.497Z,75.76
2019-04-06T20:33:47.335Z,75.59
2019-04-06T20:36:04.714Z,75.84
2019-04-06T20:38:32.255Z,76.43
2019-04-06T20:40:59.401Z,77.24
2019-04-06T20:43:26.917Z,77.96
2019-04-06T20:45:54.368Z,78.34
2019-04-06T20:48:21.820Z,77.78
2019-04-06T20:50:49.736Z,78.49
2019-04-06T20:53:17.108Z,79.14
2019-04-06T20:55:45.260Z,79.99
2019-04-06T20:58:12.829Z,79.67
2019-04-06T21:00:40.332Z,79.93
2019-04-06T21:03:07.793Z,79.64
2019-04-06T21:05:35.644Z,80.43
2019-04-06T21:08:02.759Z,79.47
2019-04-06T21:10:30.242Z,79.40
2019-04-06T21:12:57.719Z,79.13
2019-04-06T21:15:25.192Z,78.88
2019-04-06T21:17:53.415Z,78.45
2019-04-06T21:20:20.940Z,78.26
2019-04-06T21:22:48.393Z,78.45
2019-04-06T21:25:15.866Z,79.16
2019-04-06T21:27:44.154Z,80.37
2019-04-06T21:30:10.949Z,80.20
2019-04-06T21:32:38.329Z,80.05
2019-04-06T21:35:05.789Z,79.07
2019-04-06T21:37:33.493Z,79.01
2019-04-06T21:40:01.057Z,78.37
2019-04-06T21:42:28.643Z,77.42
2019-04-06T21:44:55.697Z,76.88
2019-04-06T21:47:23.169Z,76.45
2019-04-06T21:49:51.269Z,76.38
2019-04-06T21:52:18.354Z,77.00
2019-04-06T21:54:45.831Z,77.63
2019-04-06T21:57:14.182Z,77.51
2019-04-06T21:59:41.691Z,76.80
2019-04-06T22:02:08.884Z,76.96
2019-04-06T22:04:36.400Z,77.14
2019-04-06T22:07:04.273Z,76.73
2019-04-06T22:09:32.336Z,78.08
2019-04-06T22:11:59.432Z,78.16
2019-04-06T22:14:26.980Z,77.14
2019-04-06T22:16:54.911Z,76.76
2019-04-06T22:19:22.460Z,76.84
2019-04-06T22:21:49.454Z,76.57
2019-04-06T22:24:17.121Z,76.26
2019-04-06T22:26:44.500Z,76.04
2019-04-06T22:29:11.997Z,75.82
2019-04-06T22:31:39.484Z,75.33
2019-04-06T22:34:07.030Z,75.20
2019-04-06T22:36:35.613Z,75.18
2019-04-06T22:39:03.192Z,75.27
2019-04-06T22:41:31.064Z,75.98
2019-04-06T22:43:57.990Z,76.82
2019-04-06T22:46:25.417Z,76.83
2019-04-06T22:48:52.878Z,78.60
2019-04-06T22:51:20.747Z,77.58
2019-04-06T22:53:47.838Z,77.08
2019-04-06T22:56:15.333Z,76.58
2019-04-06T22:58:42.807Z,76.24
2019-04-06T23:01:10.696Z,76.35
2019-04-06T23:03:41.242Z,77.16
2019-04-06T23:06:10.451Z,77.16
2019-04-06T23:08:38.330Z,78.62
2019-04-06T23:11:06.608Z,78.39
2019-04-06T23:13:34.530Z,78.83
2019-04-06T23:16:02.025Z,78.89
2019-04-06T23:18:29.020Z,79.91
2019-04-06T23:20:56.563Z,80.88
2019-04-06T23:23:24.542Z,80.76
2019-04-06T23:25:51.856Z,80.54
2019-04-06T23:30:52.630Z,79.65
2019-04-06T23:33:21.206Z,79.30
2019-04-06T23:35:49.151Z,79.01
2019-04-06T23:38:16.757Z,78.83
2019-04-06T23:40:44.282Z,78.59
2019-04-06T23:43:11.738Z,78.01
2019-04-06T23:45:39.446Z,77.50
2019-04-06T23:48:07.119Z,76.99
2019-04-06T23:50:34.603Z,76.36
2019-04-06T23:53:01.631Z,76.10
2019-04-06T23:55:30.065Z,75.70
2019-04-06T23:57:57.976Z,75.63
